createdAt,value
2019-04-27T00:00:15.913Z,6.70
2019-04-27T00:01:16.135Z,7.00
2019-04-27T00:02:18.205Z,6.90
2019-04-27T00:03:16.617Z,6.60
2019-04-27T00:04:19.217Z,6.70
2019-04-27T00:05:16.788Z,6.40
2019-04-27T00:06:17.037Z,6.40
2019-04-27T00:07:17.119Z,6.20
2019-04-27T00:08:17.345Z,5.70
2019-04-27T00:09:17.430Z,6.70
2019-04-27T00:10:20.465Z,6.40
2019-04-27T00:11:17.815Z,6.40
2019-04-27T00:12:22.850Z,6.70
2019-04-27T00:13:18.215Z,6.40
2019-04-27T00:14:18.415Z,6.20
2019-04-27T00:15:18.627Z,6.10
2019-04-27T00:16:18.854Z,6.20
2019-04-27T00:17:21.109Z,6.70
2019-04-27T00:18:19.138Z,7.00
2019-04-27T00:19:19.363Z,6.40
2019-04-27T00:20:21.659Z,6.80
2019-04-27T00:21:19.746Z,7.00
2019-04-27T00:22:19.941Z,6.20
2019-04-27T00:23:20.141Z,6.70
2019-04-27T00:24:20.359Z,6.90
2019-04-27T00:25:20.559Z,7.50
2019-04-27T00:26:20.757Z,6.60
2019-04-27T00:27:20.905Z,6.90
2019-04-27T00:28:20.976Z,6.30
2019-04-27T00:29:21.159Z,6.50
2019-04-27T00:30:21.360Z,6.50
2019-04-27T00:31:23.306Z,6.10
2019-04-27T00:32:23.128Z,6.70
2019-04-27T00:33:23.436Z,6.80
2019-04-27T00:34:23.574Z,6.50
2019-04-27T00:35:23.472Z,6.90
2019-04-27T00:36:23.281Z,6.60
2019-04-27T00:37:23.741Z,6.70
2019-04-27T00:38:23.335Z,6.50
2019-04-27T00:39:23.152Z,7.00
2019-04-27T00:40:23.626Z,6.50
2019-04-27T00:41:24.294Z,6.60
2019-04-27T00:42:23.671Z,6.10
2019-04-27T00:43:23.871Z,5.90
2019-04-27T00:44:24.128Z,6.40
2019-04-27T00:45:24.212Z,6.40
2019-04-27T00:46:24.330Z,6.70
2019-04-27T00:47:24.404Z,6.50
2019-04-27T00:48:24.590Z,7.10
2019-04-27T00:49:24.771Z,6.00
2019-04-27T00:50:25.007Z,6.30
2019-04-27T00:51:25.086Z,6.50
2019-04-27T00:52:25.283Z,6.20
2019-04-27T00:53:25.472Z,5.40
2019-04-27T00:54:25.650Z,5.80
2019-04-27T00:55:25.909Z,5.50
2019-04-27T00:56:26.363Z,5.70
2019-04-27T00:57:28.129Z,5.60
2019-04-27T00:58:26.381Z,5.90
2019-04-27T00:59:26.595Z,6.10
2019-04-27T01:00:26.797Z,5.70
2019-04-27T01:01:27.015Z,5.80
2019-04-27T01:02:27.202Z,5.50
2019-04-27T01:03:27.388Z,5.50
2019-04-27T01:04:27.594Z,5.70
2019-04-27T01:05:27.793Z,5.20
2019-04-27T01:06:27.903Z,5.60
2019-04-27T01:07:28.132Z,5.30
2019-04-27T01:08:28.194Z,5.50
2019-04-27T01:09:28.442Z,5.40
2019-04-27T01:10:28.507Z,5.50
2019-04-27T01:11:28.707Z,5.10
2019-04-27T01:12:28.908Z,5.40
2019-04-27T01:13:29.482Z,5.00
2019-04-27T01:14:29.294Z,5.20
2019-04-27T01:15:29.493Z,4.60
2019-04-27T01:16:29.683Z,5.00
2019-04-27T01:17:29.882Z,4.90
2019-04-27T01:18:30.120Z,5.00
2019-04-27T01:19:30.201Z,5.00
2019-04-27T01:20:30.391Z,4.90
2019-04-27T01:21:30.590Z,4.90
2019-04-27T01:22:30.769Z,4.90
2019-04-27T01:23:31.028Z,4.90
2019-04-27T01:24:31.107Z,4.90
2019-04-27T01:25:31.288Z,4.80
2019-04-27T01:26:31.481Z,4.50
2019-04-27T01:27:31.689Z,4.30
2019-04-27T01:28:31.890Z,4.50
2019-04-27T01:29:32.114Z,4.30
2019-04-27T01:30:32.201Z,4.50
2019-04-27T01:31:32.401Z,4.50
2019-04-27T01:32:33.960Z,4.30
2019-04-27T01:33:32.771Z,4.20
2019-04-27T01:34:32.959Z,4.40
2019-04-27T01:35:33.203Z,4.10
2019-04-27T01:36:33.264Z,3.60
2019-04-27T01:37:33.451Z,4.20
2019-04-27T01:38:33.665Z,4.20
2019-04-27T01:39:33.968Z,4.80
2019-04-27T01:40:34.028Z,4.40
2019-04-27T01:41:34.252Z,4.30
2019-04-27T01:42:34.327Z,4.40
2019-04-27T01:43:34.527Z,4.60
2019-04-27T01:44:34.708Z,5.00
2019-04-27T01:45:34.935Z,5.20
2019-04-27T01:46:35.002Z,5.70
2019-04-27T01:47:35.241Z,5.60
2019-04-27T01:48:35.319Z,5.70
2019-04-27T01:49:35.529Z,5.90
2019-04-27T01:50:35.708Z,6.00
2019-04-27T01:51:35.818Z,5.90
2019-04-27T01:52:36.008Z,6.00
2019-04-27T01:53:36.195Z,5.90
2019-04-27T01:54:36.384Z,6.10
2019-04-27T01:55:36.561Z,6.50
2019-04-27T01:56:36.757Z,5.90
2019-04-27T01:57:38.597Z,6.10
2019-04-27T01:58:38.815Z,6.70
2019-04-27T01:59:38.687Z,6.40
2019-04-27T02:00:37.535Z,6.20
2019-04-27T02:01:38.983Z,6.30
2019-04-27T02:02:39.284Z,6.70
2019-04-27T02:03:38.673Z,6.20
2019-04-27T02:04:39.546Z,6.00
2019-04-27T02:05:39.121Z,6.00
2019-04-27T02:06:38.631Z,6.00
2019-04-27T02:07:39.030Z,6.00
2019-04-27T02:08:40.307Z,6.00
2019-04-27T02:09:39.013Z,5.80
2019-04-27T02:10:39.671Z,5.60
2019-04-27T02:11:39.409Z,5.80
2019-04-27T02:12:39.771Z,5.70
2019-04-27T02:13:39.777Z,6.10
2019-04-27T02:14:39.847Z,5.60
2019-04-27T02:15:40.056Z,5.70
2019-04-27T02:16:40.184Z,6.10
2019-04-27T02:17:40.379Z,5.80
2019-04-27T02:18:40.594Z,6.10
2019-04-27T02:19:40.783Z,5.80
2019-04-27T02:20:40.985Z,5.90
2019-04-27T02:21:41.176Z,6.20
2019-04-27T02:22:41.369Z,5.90
2019-04-27T02:23:41.599Z,5.50
2019-04-27T02:24:41.788Z,6.20
2019-04-27T02:25:42.024Z,6.20
2019-04-27T02:26:42.259Z,5.70
2019-04-27T02:27:42.329Z,5.60
2019-04-27T02:28:42.515Z,6.10
2019-04-27T02:29:42.713Z,5.90
2019-04-27T02:30:42.899Z,5.80
2019-04-27T02:31:43.145Z,6.80
2019-04-27T02:32:43.210Z,6.80
2019-04-27T02:33:43.411Z,6.10
2019-04-27T02:34:43.579Z,6.30
2019-04-27T02:35:43.633Z,6.60
2019-04-27T02:36:43.831Z,6.50
2019-04-27T02:37:44.032Z,6.40
2019-04-27T02:38:44.221Z,6.50
2019-04-27T02:39:44.451Z,6.50
2019-04-27T02:40:44.634Z,6.60
2019-04-27T02:41:44.845Z,6.80
2019-04-27T02:42:45.091Z,6.90
2019-04-27T02:43:45.168Z,6.10
2019-04-27T02:44:45.348Z,6.60
2019-04-27T02:45:45.550Z,6.70
2019-04-27T02:46:45.748Z,6.90
2019-04-27T02:47:45.963Z,6.20
2019-04-27T02:48:58.791Z,7.00
2019-04-27T02:49:46.344Z,6.60
2019-04-27T02:50:46.557Z,6.00
2019-04-27T02:51:49.398Z,6.50
2019-04-27T02:52:46.995Z,6.20
2019-04-27T02:53:49.288Z,6.00
2019-04-27T02:54:47.264Z,6.70
2019-04-27T02:55:49.729Z,6.10
2019-04-27T02:56:49.990Z,5.90
2019-04-27T02:57:49.984Z,6.00
2019-04-27T02:58:49.594Z,6.30
2019-04-27T02:59:50.239Z,6.20
2019-04-27T03:00:50.180Z,6.20
2019-04-27T03:01:50.314Z,6.20
2019-04-27T03:02:50.978Z,6.20
2019-04-27T03:03:50.292Z,6.20
2019-04-27T03:04:49.835Z,6.20
2019-04-27T03:05:50.307Z,6.50
2019-04-27T03:06:50.117Z,6.00
2019-04-27T03:07:50.321Z,7.00
2019-04-27T03:08:53.915Z,6.20
2019-04-27T03:09:51.052Z,6.80
2019-04-27T03:10:50.534Z,6.90
2019-04-27T03:11:50.474Z,7.20
2019-04-27T03:12:50.672Z,7.10
2019-04-27T03:13:51.931Z,7.60
2019-04-27T03:14:51.079Z,7.50
2019-04-27T03:15:51.275Z,7.10
2019-04-27T03:16:51.493Z,7.30
2019-04-27T03:17:51.698Z,7.40
2019-04-27T03:18:51.882Z,7.80
2019-04-27T03:19:52.369Z,7.70
2019-04-27T03:20:52.305Z,7.30
2019-04-27T03:21:52.520Z,7.90
2019-04-27T03:22:52.756Z,7.80
2019-04-27T03:23:52.876Z,7.50
2019-04-27T03:24:52.986Z,8.00
2019-04-27T03:25:53.081Z,7.80
2019-04-27T03:26:53.278Z,7.20
2019-04-27T03:27:53.466Z,7.70
2019-04-27T03:28:53.668Z,7.80
2019-04-27T03:29:53.873Z,7.60
2019-04-27T03:30:54.051Z,8.00
2019-04-27T03:31:54.685Z,7.80
2019-04-27T03:32:56.828Z,7.90
2019-04-27T03:33:58.922Z,7.80
2019-04-27T03:34:54.905Z,7.60
2019-04-27T03:35:55.034Z,7.40
2019-04-27T03:36:55.231Z,8.80
2019-04-27T03:37:55.448Z,7.90
2019-04-27T03:38:55.527Z,7.60
2019-04-27T03:39:55.725Z,8.40
2019-04-27T03:40:55.909Z,7.30
2019-04-27T03:41:56.108Z,7.30
2019-04-27T03:42:56.322Z,8.10
2019-04-27T03:43:56.442Z,7.70
2019-04-27T03:44:56.498Z,7.60
2019-04-27T03:45:56.735Z,8.10
2019-04-27T03:46:59.342Z,8.40
2019-04-27T03:47:57.086Z,8.00
2019-04-27T03:48:59.778Z,7.40
2019-04-27T03:49:59.873Z,8.30
2019-04-27T03:50:59.557Z,8.80
2019-04-27T03:52:02.672Z,7.70
2019-04-27T03:52:59.927Z,7.90
2019-04-27T03:54:00.461Z,8.30
2019-04-27T03:54:59.813Z,8.00
2019-04-27T03:55:59.956Z,8.30
2019-04-27T03:56:59.062Z,8.40
2019-04-27T03:58:00.155Z,8.60
2019-04-27T03:58:59.793Z,8.30
2019-04-27T03:59:59.819Z,8.50
2019-04-27T04:01:00.030Z,8.80
2019-04-27T04:02:02.480Z,8.40
2019-04-27T04:03:00.677Z,8.90
2019-04-27T04:04:00.093Z,9.10
2019-04-27T04:05:00.229Z,9.00
2019-04-27T04:06:00.507Z,9.40
2019-04-27T04:07:00.608Z,9.20
2019-04-27T04:08:00.792Z,8.50
2019-04-27T04:09:01.016Z,8.70
2019-04-27T04:10:01.228Z,9.40
2019-04-27T04:11:01.448Z,9.20
2019-04-27T04:12:02.298Z,8.70
2019-04-27T04:13:01.965Z,9.00
2019-04-27T04:14:01.984Z,8.30
2019-04-27T04:15:02.042Z,8.70
2019-04-27T04:16:02.272Z,8.20
2019-04-27T04:17:03.039Z,8.70
2019-04-27T04:18:02.460Z,7.80
2019-04-27T04:19:02.668Z,8.60
2019-04-27T04:20:02.874Z,7.80
2019-04-27T04:21:03.057Z,8.60
2019-04-27T04:22:03.285Z,8.50
2019-04-27T04:23:03.616Z,8.20
2019-04-27T04:24:03.642Z,8.10
2019-04-27T04:25:03.852Z,7.90
2019-04-27T04:26:04.044Z,7.70
2019-04-27T04:27:04.239Z,7.60
2019-04-27T04:28:04.451Z,7.00
2019-04-27T04:29:04.599Z,7.50
2019-04-27T04:30:04.660Z,7.80
2019-04-27T04:31:04.888Z,7.70
2019-04-27T04:32:04.989Z,7.80
2019-04-27T04:33:05.183Z,7.50
2019-04-27T04:34:05.384Z,7.70
2019-04-27T04:35:05.599Z,7.90
2019-04-27T04:36:05.825Z,7.70
2019-04-27T04:37:05.924Z,7.90
2019-04-27T04:38:06.121Z,8.20
2019-04-27T04:39:06.365Z,8.00
2019-04-27T04:40:06.458Z,8.30
2019-04-27T04:41:06.648Z,7.30
2019-04-27T04:42:09.796Z,7.60
2019-04-27T04:43:07.067Z,7.80
2019-04-27T04:44:12.148Z,7.70
2019-04-27T04:45:10.606Z,7.70
2019-04-27T04:46:12.810Z,8.50
2019-04-27T04:47:10.401Z,7.60
2019-04-27T04:48:11.423Z,7.60
2019-04-27T04:49:11.515Z,8.40
2019-04-27T04:50:14.938Z,9.10
2019-04-27T04:51:10.264Z,8.30
2019-04-27T04:52:12.212Z,8.30
2019-04-27T04:53:12.636Z,7.90
2019-04-27T04:54:09.528Z,7.90
2019-04-27T04:55:10.159Z,8.50
2019-04-27T04:56:10.637Z,8.50
2019-04-27T04:57:09.376Z,8.10
2019-04-27T04:58:09.506Z,8.50
2019-04-27T04:59:10.056Z,8.50
2019-04-27T05:00:10.043Z,8.00
2019-04-27T05:01:10.033Z,8.30
2019-04-27T05:02:10.784Z,8.50
2019-04-27T05:03:10.240Z,8.70
2019-04-27T05:04:10.324Z,8.60
2019-04-27T05:05:10.573Z,8.20
2019-04-27T05:06:10.667Z,9.40
2019-04-27T05:07:10.771Z,8.50
2019-04-27T05:08:10.988Z,9.20
2019-04-27T05:09:11.187Z,9.60
2019-04-27T05:10:11.401Z,8.90
2019-04-27T05:11:11.583Z,9.20
2019-04-27T05:12:11.804Z,9.80
2019-04-27T05:13:16.070Z,10.00
2019-04-27T05:14:14.428Z,9.10
2019-04-27T05:15:13.486Z,8.90
2019-04-27T05:16:13.645Z,8.60
2019-04-27T05:17:13.671Z,8.80
2019-04-27T05:18:14.159Z,8.50
2019-04-27T05:19:14.299Z,8.70
2019-04-27T05:20:22.471Z,8.60
2019-04-27T05:21:14.814Z,8.20
2019-04-27T05:22:16.290Z,8.90
2019-04-27T05:23:16.263Z,8.70
2019-04-27T05:24:15.257Z,8.90
2019-04-27T05:25:13.801Z,8.70
2019-04-27T05:26:13.910Z,9.00
2019-04-27T05:27:14.719Z,8.70
2019-04-27T05:28:14.175Z,9.20
2019-04-27T05:29:14.367Z,9.10
2019-04-27T05:30:14.586Z,9.20
2019-04-27T05:31:14.651Z,9.30
2019-04-27T05:32:14.852Z,8.20
2019-04-27T05:33:15.041Z,9.00
2019-04-27T05:34:15.227Z,8.50
2019-04-27T05:35:15.459Z,9.10
2019-04-27T05:36:15.521Z,9.00
2019-04-27T05:37:15.680Z,8.20
2019-04-27T05:38:15.865Z,8.20
2019-04-27T05:39:18.140Z,8.20
2019-04-27T05:40:16.167Z,8.10
2019-04-27T05:41:16.411Z,8.40
2019-04-27T05:42:17.143Z,8.90
2019-04-27T05:43:16.706Z,8.80
2019-04-27T05:44:18.372Z,8.60
2019-04-27T05:45:20.031Z,8.80
2019-04-27T05:46:19.020Z,8.70
2019-04-27T05:47:18.967Z,8.50
2019-04-27T05:48:27.280Z,9.00
2019-04-27T05:49:18.846Z,8.10
2019-04-27T05:50:21.835Z,9.00
2019-04-27T05:51:19.765Z,8.60
2019-04-27T05:52:18.530Z,8.80
2019-04-27T05:53:18.951Z,9.00
2019-04-27T05:54:19.210Z,8.70
2019-04-27T05:55:19.270Z,8.60
2019-04-27T05:56:19.276Z,9.10
2019-04-27T05:57:19.579Z,8.60
2019-04-27T05:58:19.618Z,8.70
2019-04-27T05:59:19.956Z,8.60
2019-04-27T06:00:19.677Z,8.70
2019-04-27T06:01:19.813Z,8.70
2019-04-27T06:02:20.370Z,8.70
2019-04-27T06:03:21.076Z,8.80
2019-04-27T06:04:20.414Z,9.00
2019-04-27T06:05:22.739Z,9.30
2019-04-27T06:06:20.916Z,8.60
2019-04-27T06:07:20.991Z,8.70
2019-04-27T06:08:21.226Z,8.90
2019-04-27T06:09:21.440Z,9.30
2019-04-27T06:10:21.622Z,9.10
2019-04-27T06:11:21.837Z,9.00
2019-04-27T06:12:22.031Z,9.20
2019-04-27T06:13:22.235Z,9.10
2019-04-27T06:14:22.450Z,9.00
2019-04-27T06:15:22.641Z,8.80
2019-04-27T06:16:22.862Z,9.20
2019-04-27T06:17:23.095Z,8.60
2019-04-27T06:18:23.207Z,8.70
2019-04-27T06:19:23.263Z,8.80
2019-04-27T06:20:23.458Z,9.00
2019-04-27T06:21:23.658Z,8.70
2019-04-27T06:22:23.839Z,9.30
2019-04-27T06:23:24.247Z,8.80
2019-04-27T06:24:24.077Z,9.10
2019-04-27T06:25:24.309Z,8.90
2019-04-27T06:26:24.500Z,8.70
2019-04-27T06:27:24.683Z,8.90
2019-04-27T06:28:24.872Z,9.40
2019-04-27T06:29:25.072Z,10.10
2019-04-27T06:30:25.159Z,9.30
2019-04-27T06:31:25.412Z,9.90
2019-04-27T06:32:25.500Z,9.70
2019-04-27T06:33:31.981Z,9.10
2019-04-27T06:34:25.936Z,9.20
2019-04-27T06:35:26.012Z,9.10
2019-04-27T06:36:26.199Z,9.10
2019-04-27T06:37:26.317Z,9.50
2019-04-27T06:38:26.498Z,9.20
2019-04-27T06:39:26.713Z,9.60
2019-04-27T06:40:26.810Z,9.40
2019-04-27T06:41:27.017Z,9.10
2019-04-27T06:42:27.205Z,9.30
2019-04-27T06:43:29.254Z,9.40
2019-04-27T06:44:29.234Z,9.40
2019-04-27T06:45:28.537Z,9.30
2019-04-27T06:46:28.800Z,9.20
2019-04-27T06:47:29.459Z,9.10
2019-04-27T06:48:29.638Z,9.50
2019-04-27T06:49:29.521Z,9.30
2019-04-27T06:50:29.572Z,8.70
2019-04-27T06:51:28.928Z,9.30
2019-04-27T06:52:29.369Z,8.80
2019-04-27T06:53:29.215Z,9.10
2019-04-27T06:54:29.305Z,8.80
2019-04-27T06:55:29.547Z,8.50
2019-04-27T06:56:29.746Z,8.70
2019-04-27T06:57:29.840Z,8.50
2019-04-27T06:58:30.050Z,8.80
2019-04-27T06:59:30.408Z,8.70
2019-04-27T07:00:30.308Z,9.10
2019-04-27T07:01:30.423Z,8.80
2019-04-27T07:02:30.611Z,8.60
2019-04-27T07:03:30.802Z,8.60
2019-04-27T07:04:31.008Z,8.90
2019-04-27T07:05:31.194Z,8.30
2019-04-27T07:06:31.401Z,8.50
2019-04-27T07:07:31.591Z,7.80
2019-04-27T07:08:31.808Z,7.90
2019-04-27T07:09:31.899Z,8.50
2019-04-27T07:10:32.089Z,8.50
2019-04-27T07:11:32.336Z,7.70
2019-04-27T07:12:32.437Z,7.60
2019-04-27T07:13:33.681Z,8.70
2019-04-27T07:14:33.627Z,7.40
2019-04-27T07:15:35.370Z,7.80
2019-04-27T07:16:35.147Z,7.50
2019-04-27T07:17:33.280Z,7.20
2019-04-27T07:18:33.380Z,7.30
2019-04-27T07:19:33.581Z,7.20
2019-04-27T07:20:33.842Z,7.10
2019-04-27T07:21:34.051Z,7.40
2019-04-27T07:22:34.228Z,7.50
2019-04-27T07:23:34.290Z,7.50
2019-04-27T07:24:34.815Z,7.10
2019-04-27T07:25:34.838Z,7.00
2019-04-27T07:26:36.381Z,6.70
2019-04-27T07:27:36.412Z,7.30
2019-04-27T07:28:35.155Z,6.80
2019-04-27T07:29:40.323Z,6.40
2019-04-27T07:30:36.087Z,6.50
2019-04-27T07:31:39.796Z,6.70
2019-04-27T07:32:36.215Z,6.40
2019-04-27T07:33:39.479Z,6.30
2019-04-27T07:34:38.689Z,6.40
2019-04-27T07:35:36.815Z,6.40
2019-04-27T07:36:36.279Z,6.30
2019-04-27T07:37:36.663Z,5.80
2019-04-27T07:38:36.679Z,6.10
2019-04-27T07:39:36.892Z,5.90
2019-04-27T07:40:39.944Z,5.70
2019-04-27T07:41:38.783Z,5.50
2019-04-27T07:42:40.868Z,5.60
2019-04-27T07:43:39.290Z,6.00
2019-04-27T07:44:39.063Z,5.60
2019-04-27T07:45:39.508Z,5.50
2019-04-27T07:46:38.626Z,5.30
2019-04-27T07:47:39.351Z,5.20
2019-04-27T07:48:39.548Z,5.10
2019-04-27T07:49:39.127Z,5.10
2019-04-27T07:50:39.142Z,4.90
2019-04-27T07:51:39.375Z,4.60
2019-04-27T07:52:40.523Z,4.70
2019-04-27T07:53:39.582Z,4.70
2019-04-27T07:54:40.976Z,4.40
2019-04-27T07:55:39.996Z,4.10
2019-04-27T07:56:40.295Z,4.20
2019-04-27T07:57:40.389Z,4.50
2019-04-27T07:58:40.307Z,4.30
2019-04-27T07:59:42.042Z,4.40
2019-04-27T08:00:40.642Z,4.30
2019-04-27T08:01:40.812Z,4.70
2019-04-27T08:02:41.058Z,3.90
2019-04-27T08:03:41.291Z,4.40
2019-04-27T08:04:41.440Z,4.20
2019-04-27T08:05:41.516Z,4.20
2019-04-27T08:06:41.703Z,4.10
2019-04-27T08:07:41.928Z,4.30
2019-04-27T08:08:42.006Z,4.50
2019-04-27T08:09:42.195Z,3.90
2019-04-27T08:10:42.494Z,4.60
2019-04-27T08:11:42.707Z,4.30
2019-04-27T08:12:42.727Z,4.00
2019-04-27T08:13:42.927Z,4.10
2019-04-27T08:14:43.137Z,4.20
2019-04-27T08:15:43.347Z,4.10
2019-04-27T08:16:43.893Z,4.30
2019-04-27T08:17:43.704Z,4.20
2019-04-27T08:18:43.897Z,3.90
2019-04-27T08:19:44.145Z,4.20
2019-04-27T08:20:44.324Z,4.20
2019-04-27T08:21:46.546Z,4.00
2019-04-27T08:22:44.731Z,3.80
2019-04-27T08:23:45.179Z,3.70
2019-04-27T08:24:45.127Z,3.60
2019-04-27T08:25:45.425Z,3.80
2019-04-27T08:26:45.435Z,3.70
2019-04-27T08:27:45.957Z,3.50
2019-04-27T08:28:45.834Z,3.60
2019-04-27T08:29:48.688Z,3.20
2019-04-27T08:30:46.041Z,3.40
2019-04-27T08:31:46.253Z,3.60
2019-04-27T08:32:46.450Z,3.40
2019-04-27T08:33:48.533Z,3.40
2019-04-27T08:34:46.862Z,2.60
2019-04-27T08:35:48.955Z,2.60
2019-04-27T08:36:49.936Z,2.80
2019-04-27T08:37:49.516Z,2.80
2019-04-27T08:38:48.903Z,2.70
2019-04-27T08:39:49.415Z,2.70
2019-04-27T08:40:49.377Z,2.60
2019-04-27T08:41:49.483Z,2.20
2019-04-27T08:42:50.870Z,2.10
2019-04-27T08:43:48.872Z,2.10
2019-04-27T08:44:49.724Z,1.70
2019-04-27T08:45:48.957Z,1.80
2019-04-27T08:46:49.512Z,1.80
2019-04-27T08:47:49.826Z,1.40
2019-04-27T08:48:49.388Z,1.70
2019-04-27T08:49:49.580Z,1.60
2019-04-27T08:50:49.763Z,1.50
2019-04-27T08:51:57.302Z,1.80
2019-04-27T08:52:51.480Z,1.50
2019-04-27T08:53:50.372Z,1.30
2019-04-27T08:54:51.062Z,1.40
2019-04-27T08:55:52.769Z,1.50
2019-04-27T08:56:50.991Z,1.40
2019-04-27T08:57:51.349Z,1.60
2019-04-27T08:58:51.415Z,1.70
2019-04-27T08:59:51.610Z,1.80
2019-04-27T09:00:51.804Z,1.60
2019-04-27T09:01:52.031Z,1.70
2019-04-27T09:02:52.341Z,1.70
2019-04-27T09:03:52.462Z,1.50
2019-04-27T09:04:52.537Z,1.60
2019-04-27T09:05:52.763Z,1.40
2019-04-27T09:06:53.025Z,1.50
2019-04-27T09:07:53.156Z,1.20
2019-04-27T09:08:53.242Z,1.20
2019-04-27T09:09:53.480Z,1.00
2019-04-27T09:10:53.553Z,1.10
2019-04-27T09:11:53.765Z,1.10
2019-04-27T09:12:53.978Z,1.00
2019-04-27T09:13:54.083Z,1.00
2019-04-27T09:14:54.278Z,1.10
2019-04-27T09:15:54.519Z,1.10
2019-04-27T09:17:00.088Z,1.00
2019-04-27T09:17:54.964Z,0.90
2019-04-27T09:18:55.233Z,0.90
2019-04-27T09:19:55.337Z,0.80
2019-04-27T09:20:55.540Z,1.00
2019-04-27T09:21:55.741Z,1.00
2019-04-27T09:22:55.999Z,0.90
2019-04-27T09:23:56.068Z,1.00
2019-04-27T09:24:56.276Z,0.80
2019-04-27T09:25:56.480Z,1.00
2019-04-27T09:26:56.681Z,0.90
2019-04-27T09:27:56.865Z,1.00
2019-04-27T09:28:57.082Z,0.90
2019-04-27T09:29:58.839Z,0.90
2019-04-27T09:30:58.621Z,1.10
2019-04-27T09:32:01.505Z,1.00
2019-04-27T09:32:57.811Z,1.10
2019-04-27T09:33:58.024Z,1.00
2019-04-27T09:34:58.384Z,1.10
2019-04-27T09:35:58.402Z,1.30
2019-04-27T09:36:58.979Z,1.50
2019-04-27T09:37:58.781Z,1.50
2019-04-27T09:38:59.077Z,1.50
2019-04-27T09:39:59.120Z,1.40
2019-04-27T09:40:59.315Z,1.30
2019-04-27T09:41:59.537Z,1.30
2019-04-27T09:42:59.736Z,1.30
2019-04-27T09:44:02.436Z,1.30
2019-04-27T09:45:00.176Z,1.50
2019-04-27T09:46:00.520Z,1.50
2019-04-27T09:47:00.594Z,1.50
2019-04-27T09:48:00.831Z,1.70
2019-04-27T09:49:01.056Z,1.80
2019-04-27T09:50:01.152Z,2.00
2019-04-27T09:51:01.356Z,1.90
2019-04-27T09:52:01.469Z,2.10
2019-04-27T09:53:01.706Z,2.00
2019-04-27T09:54:01.802Z,1.50
2019-04-27T09:55:01.993Z,1.40
2019-04-27T09:56:02.406Z,1.90
2019-04-27T09:57:02.380Z,1.70
2019-04-27T09:58:02.564Z,2.10
2019-04-27T09:59:02.900Z,1.80
2019-04-27T10:00:02.879Z,1.90
2019-04-27T10:01:03.063Z,1.70
2019-04-27T10:02:03.415Z,1.70
2019-04-27T10:03:03.918Z,1.50
2019-04-27T10:04:03.981Z,1.50
2019-04-27T10:05:05.809Z,1.70
2019-04-27T10:06:05.769Z,1.40
2019-04-27T10:07:06.065Z,1.30
2019-04-27T10:08:06.186Z,1.50
2019-04-27T10:09:04.466Z,1.80
2019-04-27T10:10:06.345Z,1.50
2019-04-27T10:11:05.945Z,1.30
2019-04-27T10:12:05.344Z,1.30
2019-04-27T10:13:06.843Z,1.30
2019-04-27T10:14:05.895Z,1.50
2019-04-27T10:15:06.170Z,1.30
2019-04-27T10:16:05.815Z,1.40
2019-04-27T10:17:06.020Z,1.40
2019-04-27T10:18:06.513Z,1.30
2019-04-27T10:19:06.346Z,1.40
2019-04-27T10:20:06.562Z,1.20
2019-04-27T10:21:06.773Z,1.50
2019-04-27T10:22:07.082Z,1.30
2019-04-27T10:23:07.225Z,1.30
2019-04-27T10:24:07.300Z,1.30
2019-04-27T10:25:07.522Z,1.30
2019-04-27T10:26:07.713Z,1.40
2019-04-27T10:27:08.149Z,1.40
2019-04-27T10:28:08.126Z,1.40
2019-04-27T10:29:08.331Z,1.40
2019-04-27T10:30:08.430Z,1.30
2019-04-27T10:31:08.666Z,1.20
2019-04-27T10:32:08.853Z,1.60
2019-04-27T10:33:09.089Z,1.40
2019-04-27T10:34:09.193Z,1.50
2019-04-27T10:35:09.281Z,1.50
2019-04-27T10:36:09.503Z,1.40
2019-04-27T10:37:09.699Z,1.30
2019-04-27T10:38:09.892Z,1.30
2019-04-27T10:39:13.014Z,1.70
2019-04-27T10:40:10.321Z,1.40
2019-04-27T10:41:10.521Z,1.40
2019-04-27T10:42:10.771Z,1.50
2019-04-27T10:43:10.836Z,1.40
2019-04-27T10:44:11.115Z,1.30
2019-04-27T10:45:11.217Z,1.60
2019-04-27T10:46:11.473Z,1.40
2019-04-27T10:47:11.521Z,1.70
2019-04-27T10:48:11.615Z,1.30
2019-04-27T10:49:11.775Z,1.30
2019-04-27T10:50:11.846Z,1.30
2019-04-27T10:51:12.038Z,1.30
2019-04-27T10:52:12.231Z,1.30
2019-04-27T10:53:12.449Z,1.30
2019-04-27T10:54:12.588Z,1.40
2019-04-27T10:55:12.794Z,1.60
2019-04-27T10:56:12.989Z,1.40
2019-04-27T10:57:13.203Z,1.50
2019-04-27T10:58:13.278Z,1.50
2019-04-27T10:59:13.537Z,1.50
2019-04-27T11:00:13.638Z,1.50
2019-04-27T11:01:15.546Z,1.60
2019-04-27T11:02:13.892Z,1.40
2019-04-27T11:03:14.108Z,1.60
2019-04-27T11:04:15.928Z,1.40
2019-04-27T11:05:14.535Z,1.50
2019-04-27T11:06:16.008Z,1.60
2019-04-27T11:07:15.832Z,1.50
2019-04-27T11:08:16.682Z,1.50
2019-04-27T11:09:16.327Z,1.70
2019-04-27T11:10:16.302Z,1.60
2019-04-27T11:11:15.782Z,1.50
2019-04-27T11:12:15.976Z,1.90
2019-04-27T11:13:16.653Z,2.00
2019-04-27T11:14:16.419Z,1.80
2019-04-27T11:15:16.504Z,2.10
2019-04-27T11:16:16.691Z,2.20
2019-04-27T11:17:16.908Z,1.90
2019-04-27T11:18:17.468Z,1.80
2019-04-27T11:19:17.271Z,1.60
2019-04-27T11:20:17.427Z,1.20
2019-04-27T11:21:17.503Z,1.40
2019-04-27T11:22:17.760Z,1.50
2019-04-27T11:23:17.839Z,1.50
2019-04-27T11:24:18.058Z,1.40
2019-04-27T11:25:18.263Z,1.40
2019-04-27T11:26:18.499Z,1.50
2019-04-27T11:27:18.587Z,1.40
2019-04-27T11:28:18.671Z,1.40
2019-04-27T11:29:18.861Z,1.30
2019-04-27T11:30:19.107Z,1.20
2019-04-27T11:31:19.178Z,1.40
2019-04-27T11:32:19.384Z,1.30
2019-04-27T11:33:19.646Z,1.50
2019-04-27T11:34:19.713Z,1.50
2019-04-27T11:35:19.973Z,1.60
2019-04-27T11:36:20.055Z,1.60
2019-04-27T11:37:20.343Z,1.70
2019-04-27T11:38:20.364Z,1.70
2019-04-27T11:39:21.275Z,1.90
2019-04-27T11:40:20.851Z,1.80
2019-04-27T11:41:20.953Z,1.80
2019-04-27T11:42:21.227Z,1.90
2019-04-27T11:43:21.282Z,1.80
2019-04-27T11:44:21.632Z,1.80
2019-04-27T11:45:21.625Z,2.10
2019-04-27T11:46:21.715Z,2.20
2019-04-27T11:47:21.972Z,1.90
2019-04-27T11:48:22.062Z,1.80
2019-04-27T11:49:22.317Z,1.70
2019-04-27T11:50:22.397Z,2.30
2019-04-27T11:51:22.489Z,1.50
2019-04-27T11:52:22.731Z,1.60
2019-04-27T11:53:23.243Z,1.10
2019-04-27T11:54:25.573Z,1.50
2019-04-27T11:55:23.139Z,1.20
2019-04-27T11:56:23.326Z,1.30
2019-04-27T11:57:23.524Z,1.30
2019-04-27T11:58:23.733Z,1.30
2019-04-27T11:59:23.937Z,1.20
2019-04-27T12:00:24.158Z,1.20
2019-04-27T12:01:24.342Z,1.20
2019-04-27T12:02:25.783Z,1.50
2019-04-27T12:03:24.796Z,1.40
2019-04-27T12:04:26.307Z,1.60
2019-04-27T12:05:26.087Z,1.70
2019-04-27T12:06:25.848Z,1.10
2019-04-27T12:07:27.795Z,1.10
2019-04-27T12:08:26.467Z,1.70
2019-04-27T12:09:25.653Z,1.30
2019-04-27T12:10:26.376Z,1.60
2019-04-27T12:11:26.188Z,1.30
2019-04-27T12:12:26.307Z,1.50
2019-04-27T12:13:26.430Z,1.40
2019-04-27T12:14:26.624Z,4.70
2019-04-27T12:15:26.822Z,3.50
2019-04-27T12:16:27.023Z,3.20
2019-04-27T12:17:29.195Z,2.30
2019-04-27T12:18:27.420Z,2.20
2019-04-27T12:19:27.639Z,1.60
2019-04-27T12:20:27.834Z,1.90
2019-04-27T12:21:28.049Z,1.90
2019-04-27T12:22:28.289Z,1.90
2019-04-27T12:23:35.576Z,2.00
2019-04-27T12:24:28.562Z,1.80
2019-04-27T12:25:28.756Z,1.60
2019-04-27T12:26:28.952Z,1.40
2019-04-27T12:27:29.178Z,1.40
2019-04-27T12:28:29.378Z,1.30
2019-04-27T12:29:30.434Z,1.30
2019-04-27T12:30:29.736Z,1.30
2019-04-27T12:31:29.966Z,1.50
2019-04-27T12:32:30.157Z,1.40
2019-04-27T12:33:30.355Z,1.50
2019-04-27T12:34:30.552Z,1.70
2019-04-27T12:35:30.761Z,1.50
2019-04-27T12:36:30.987Z,1.20
2019-04-27T12:37:31.191Z,1.40
2019-04-27T12:38:31.283Z,1.40
2019-04-27T12:39:31.507Z,1.50
2019-04-27T12:40:31.689Z,1.40
2019-04-27T12:41:31.886Z,1.50
2019-04-27T12:42:32.088Z,1.50
2019-04-27T12:43:32.485Z,1.50
2019-04-27T12:44:32.443Z,1.30
2019-04-27T12:45:32.670Z,1.40
2019-04-27T12:46:32.882Z,1.60
2019-04-27T12:47:32.998Z,1.50
2019-04-27T12:48:33.209Z,1.60
2019-04-27T12:49:33.524Z,1.70
2019-04-27T12:50:33.592Z,1.60
2019-04-27T12:51:35.529Z,1.60
2019-04-27T12:52:33.898Z,1.60
2019-04-27T12:53:47.638Z,1.70
2019-04-27T12:54:36.217Z,1.60
2019-04-27T12:55:34.414Z,1.70
2019-04-27T12:56:34.619Z,1.50
2019-04-27T12:57:36.402Z,1.50
2019-04-27T12:58:36.520Z,1.70
2019-04-27T12:59:36.571Z,1.80
2019-04-27T13:00:35.506Z,1.40
2019-04-27T13:01:36.108Z,1.60
2019-04-27T13:02:35.766Z,1.70
2019-04-27T13:03:36.403Z,1.70
2019-04-27T13:04:36.476Z,1.50
2019-04-27T13:05:36.174Z,1.90
2019-04-27T13:06:36.440Z,1.70
2019-04-27T13:07:36.514Z,1.40
2019-04-27T13:08:36.712Z,1.80
2019-04-27T13:09:36.969Z,1.70
2019-04-27T13:10:37.213Z,1.50
2019-04-27T13:11:37.214Z,1.50
2019-04-27T13:12:37.430Z,1.60
2019-04-27T13:13:37.873Z,1.30
2019-04-27T13:14:37.961Z,1.60
2019-04-27T13:15:37.925Z,1.30
2019-04-27T13:16:38.158Z,1.50
2019-04-27T13:17:38.241Z,1.30
2019-04-27T13:18:38.510Z,1.30
2019-04-27T13:19:39.503Z,1.50
2019-04-27T13:20:38.738Z,1.40